• Join FlightAware (Why Join?)
  • Login
  • US Flag 
08:58PM EST


 

Airport Tracker/Info


-or-


 

Live Flight TrackerFlight Track Log ✈ UAL33 ✈ 30-Jun-2013 ✈ KORD - KIAH

Flight Track Log - Related Links

Times and Time Zones

All times are in EDT time to prevent confusion due to time zone crossing. See the UAL33 flight status page for this flight to view local times or setup timezone preferences in your user account.

Time Position Orientation Groundspeed Altitude Reporting Facility
EDT Latitude Longitude Course Direction KTS MPH feet Rate Location/Type
10:04PM 41.9800 -87.9120 337° Northwest 18 21  Level FlightAware
10:05PM 41.9800 -87.9130 270° West 20 23 224 Level FlightAware
10:06PM 41.9750 -87.9150 200° South 29 33 237 Level FlightAware
10:07PM 41.8038 -88.0434 200° South  Level Estimated
10:07PM 41.9780 -87.9150 360° North 31 36  Level FlightAware
10:07PM 41.9800 -87.9170 323° Northwest 15 17 431 Level FlightAware
10:08PM 41.9810 -87.9180 323° Northwest 32 37 528 Level FlightAware
10:08PM 41.9820 -87.9180 360° North 15 17 660 Level FlightAware
10:09PM 41.9840 -87.9130 62° Northeast 82 94 786 Level FlightAware
10:09PM 41.9840 -87.8870 90° East 156 180 1,100 2,286 Climbing FlightAware
10:09PM 41.9830 -87.8750 96° East 161 185 1,600 2,786 Climbing FlightAware
10:10PM 41.9750 -87.8630 132° Southeast 175 201 2,400 2,344 Climbing FlightAware
10:11PM 41.9390 -87.8280 144° Southeast 221 254 4,100 1,952 Climbing FlightAware
10:11PM 41.9080 -87.8000 146° Southeast 271 312 5,100 1,149 Climbing FlightAware
10:11PM 41.8920 -87.7970 172° South 282 325 5,000 -140 Descending FlightAware
10:12PM 41.8510 -87.7970 180° South 283 326 5,000  Level FlightAware
10:12PM 41.8090 -87.7980 181° South 284 327 5,000 1,000 Level FlightAware
10:13PM 41.7710 -87.7980 180° South 285 328 6,000 2,714 Climbing FlightAware
10:13PM 41.7530 -87.8030 192° South 293 337 6,900 3,682 Climbing FlightAware
10:14PM 41.7160 -87.8270 206° Southwest 301 346 8,700 3,781 Climbing FlightAware
10:14PM 41.6620 -87.8620 206° Southwest 299 344 11,500 3,363 Climbing FlightAware
10:15PM 41.6050 -87.9000 206° Southwest 334 384 13,800 2,897 Climbing FlightAware
10:16PM 41.5420 -87.9410 206° Southwest 365 420 15,700 3,253 Climbing FlightAware
10:16PM 41.4740 -87.9860 206° Southwest 376 433 18,300 3,214 Climbing FlightAware
10:17PM 41.4100 -88.0260 205° Southwest 393 452 20,200 2,714 Climbing FlightAware
10:18PM 41.3320 -88.0550 196° South 409 471 22,100 2,786 Climbing FlightAware
10:19PM 41.2580 -88.0820 195° South 415 478 24,100 2,786 Climbing FlightAware
10:19PM 41.1810 -88.1280 204° Southwest 425 489 26,000 2,571 Climbing FlightAware
10:20PM 41.1090 -88.1770 207° Southwest 432 497 27,700 2,259 Climbing FlightAware
10:21PM 41.0300 -88.2310 207° Southwest 443 510 29,200 2,118 Climbing FlightAware
10:21PM 40.9560 -88.2820 207° Southwest 449 517 30,700 2,000 Climbing FlightAware
10:22PM 40.8770 -88.3360 207° Southwest 457 526 32,000 1,835 Climbing FlightAware
10:23PM 40.7960 -88.3920 208° Southwest 466 536 33,300 1,694 Climbing FlightAware
10:23PM 40.7100 -88.4500 207° Southwest 473 544 34,400 1,553 Climbing FlightAware
10:24PM 40.6350 -88.5010 207° Southwest 474 545 35,500 1,556 Climbing FlightAware
10:25PM 40.5520 -88.5570 207° Southwest 478 550 36,500 1,725 Climbing FlightAware
10:25PM 40.4730 -88.6100 207° Southwest 470 541 37,800 1,553 Climbing FlightAware
10:26PM 40.3880 -88.6680 207° Southwest 472 543 38,700 1,213 Climbing FlightAware
10:27PM 40.3020 -88.7250 207° Southwest 470 541 39,600 918 Climbing FlightAware
10:28PM 40.2220 -88.7790 207° Southwest 468 539 40,000 308 Climbing FlightAware
10:28PM 40.1550 -88.8240 207° Southwest 468 539 40,000  Level FlightAware
10:29PM 40.0610 -88.8860 207° Southwest 470 541 40,000  Level FlightAware
10:30PM 39.9840 -88.9370 207° Southwest 471 542 40,000  Level FlightAware
10:30PM 39.8990 -88.9930 207° Southwest 473 544 40,000  Level FlightAware
10:31PM 39.8280 -89.0400 207° Southwest 474 545 40,000  Level FlightAware
10:32PM 39.7330 -89.1030 207° Southwest 476 548 40,000  Level FlightAware
10:33PM 39.6560 -89.1530 207° Southwest 477 549 40,000  Level FlightAware
10:33PM 39.5680 -89.2110 207° Southwest 478 550 40,000  Level FlightAware
10:34PM 39.4860 -89.2650 207° Southwest 478 550 40,000  Level FlightAware
10:35PM 39.4020 -89.3190 206° Southwest 479 551 40,000  Level FlightAware
10:35PM 39.3170 -89.3750 207° Southwest 480 552 40,000  Level FlightAware
10:36PM 39.2420 -89.4230 206° Southwest 480 552 40,000  Level FlightAware
10:37PM 39.1650 -89.4730 207° Southwest 480 552 40,000  Level FlightAware
10:37PM 39.0720 -89.5330 207° Southwest 480 552 40,000  Level FlightAware
10:38PM 38.9850 -89.5890 207° Southwest 482 555 40,000  Level FlightAware
10:39PM 38.9030 -89.6410 206° Southwest 485 558 40,000  Level FlightAware
10:39PM 38.8270 -89.6900 207° Southwest 487 560 40,000  Level FlightAware
10:40PM 38.7420 -89.7430 206° Southwest 486 559 40,000  Level FlightAware
10:41PM 38.6410 -89.7940 202° Southwest 485 558 40,000  Level FlightAware
10:42PM 38.5640 -89.8310 201° Southwest 488 562 40,000  Level FlightAware
10:42PM 38.4650 -89.8780 200° South 489 563 40,000  Level FlightAware
10:43PM 38.3860 -89.9150 200° South 487 560 40,000  Level FlightAware
10:44PM 38.2890 -89.9600 200° South 486 559 40,000  Level FlightAware
10:44PM 38.2140 -89.9950 200° South 485 558 40,000  Level FlightAware
10:45PM 38.1120 -90.0430 200° South 488 562 40,000  Level FlightAware
10:46PM 38.0270 -90.0820 200° South 486 559 40,000  Level FlightAware
10:46PM 37.9380 -90.1240 200° South 486 559 40,000  Level FlightAware
10:47PM 37.8720 -90.1540 200° South 486 559 40,000  Level FlightAware
10:48PM 37.7850 -90.1940 200° South 486 559 40,000  Level FlightAware
10:49PM 37.6780 -90.2440 200° South 486 559 40,000  Level FlightAware
10:50PM 37.6130 -90.2730 199° South 486 559 40,000  Level FlightAware
10:50PM 37.5430 -90.3060 200° South 486 559 40,000  Level FlightAware
10:51PM 37.4570 -90.3450 200° South 486 559 40,000  Level FlightAware
10:52PM 37.3920 -90.3750 200° South 486 559 40,000  Level FlightAware
10:52PM 37.1920 -90.4660 200° South 489 563 40,000  Level FlightAware
10:53PM 37.0970 -90.5090 200° South 489 563 40,000  Level FlightAware
10:54PM 37.0120 -90.5470 200° South 491 565 40,000  Level FlightAware
10:54PM 36.9270 -90.5860 200° South 492 566 40,000  Level FlightAware
10:55PM 36.8280 -90.6300 200° South 492 566 40,000  Level FlightAware
10:56PM 36.7430 -90.6680 200° South 491 565 40,000  Level FlightAware
10:57PM 36.6550 -90.7080 200° South 493 567 40,000  Level FlightAware
10:57PM 36.5620 -90.7490 200° South 493 567 40,000  Level FlightAware
10:58PM 36.4410 -90.8030 200° South 495 570 40,000  Level FlightAware
10:59PM 36.3460 -90.8450 200° South 493 567 40,000  Level FlightAware
11:00PM 36.2580 -90.8840 200° South 494 568 40,000  Level FlightAware
11:00PM 36.1700 -90.9230 200° South 494 568 40,000  Level FlightAware
11:01PM 36.0800 -90.9630 200° South 494 568 40,000  Level FlightAware
11:02PM 35.9600 -91.0150 199° South 495 570 40,000  Level FlightAware
11:03PM 35.8930 -91.0430 199° South 495 570 40,000  Level FlightAware
11:03PM 35.7730 -91.0970 200° South 495 570 40,000  Level FlightAware
11:04PM 35.6950 -91.1310 199° South 497 572 40,000  Level FlightAware
11:05PM 35.5390 -91.1990 200° South 496 571 40,000  Level FlightAware
11:06PM 35.4270 -91.2470 199° South 496 571 40,000  Level FlightAware
11:07PM 35.2990 -91.3020 199° South 498 573 40,000  Level FlightAware
11:08PM 35.2320 -91.3300 199° South 498 573 40,000  Level FlightAware
11:08PM 35.1420 -91.3690 200° South 498 573 40,000  Level FlightAware
11:09PM 35.0750 -91.3970 199° South 498 573 40,000  Level FlightAware
11:10PM 34.9860 -91.4340 199° South 498 573 40,000  Level FlightAware
11:10PM 34.9230 -91.4600 199° South 498 573 40,000  Level FlightAware
11:11PM 34.8290 -91.5000 199° South 498 573 40,000  Level FlightAware
11:12PM 34.7600 -91.5290 199° South 498 573 40,000  Level FlightAware
11:13PM 34.6710 -91.5660 199° South 498 573 40,000  Level FlightAware
11:13PM 34.6050 -91.5940 199° South 498 573 40,000  Level FlightAware
11:14PM 34.5360 -91.6230 199° South 498 573 40,000  Level FlightAware
11:15PM 34.3940 -91.6820 199° South 498 573 40,000  Level FlightAware
11:16PM 34.3250 -91.7110 199° South 498 573 40,000  Level FlightAware
11:16PM 34.0892 -91.8144 199° South 494 568 40,000  Level Memphis Center
11:18PM 33.8792 -91.9047 200° South 472 543 40,000  Level Fort Worth Center
11:19PM 33.7500 -91.9581 199° South 485 558 40,000  Level Fort Worth Center
11:20PM 33.6189 -92.0111 199° South 492 566 40,000  Level Fort Worth Center
11:21PM 33.4986 -92.0756 204° Southwest 493 567 40,000  Level Fort Worth Center
11:22PM 33.3850 -92.1572 211° Southwest 482 555 40,000  Level Fort Worth Center
11:23PM 33.2778 -92.2331 211° Southwest 461 531 40,000  Level Fort Worth Center
11:24PM 33.1642 -92.3142 211° Southwest 461 531 40,000  Level Fort Worth Center
11:25PM 33.0544 -92.3922 211° Southwest 461 531 40,000  Level Fort Worth Center
11:26PM 32.9428 -92.4703 210° Southwest 461 531 40,000  Level Fort Worth Center
11:27PM 32.8333 -92.5506 212° Southwest 461 531 40,000  Level Fort Worth Center
11:28PM 32.7214 -92.6281 210° Southwest 461 531 40,000  Level Fort Worth Center
11:29PM 32.6117 -92.7056 211° Southwest 456 525 40,000  Level Fort Worth Center
11:35PM 31.9469 -93.1731 211° Southwest 466 536 40,000  Level FlightAware ADS-B
11:36PM 31.8685 -93.2276 211° Southwest 464 534 40,000  Level FlightAware ADS-B
11:36PM 31.8127 -93.2662 210° Southwest 464 534 40,000  Level FlightAware ADS-B
11:37PM 31.7514 -93.3086 210° Southwest 467 537 40,000  Level FlightAware ADS-B
11:37PM 31.6942 -93.3482 211° Southwest 471 542 40,000  Level FlightAware ADS-B
11:38PM 31.6326 -93.3907 210° Southwest 475 547 40,000 -571 Level FlightAware ADS-B
11:38PM 31.5753 -93.4302 210° Southwest 476 548 39,400 -1,800 Descending FlightAware ADS-B
11:39PM 31.5182 -93.4696 210° Southwest 479 551 38,200 -2,600 Descending FlightAware ADS-B
11:39PM 31.4603 -93.5093 210° Southwest 482 555 36,800 -2,754 Descending FlightAware ADS-B
11:40PM 31.4015 -93.5493 210° Southwest 485 558 35,400 -2,813 Descending FlightAware ADS-B
11:40PM 31.3368 -93.5936 210° Southwest 490 564 33,800 -2,952 Descending FlightAware ADS-B
11:41PM 31.2770 -93.6345 210° Southwest 494 568 32,300 -2,411 Descending FlightAware ADS-B
11:42PM 31.1169 -93.7437 210° Southwest 492 566 29,300 -2,190 Descending FlightAware ADS-B
11:43PM 31.0328 -93.8008 210° Southwest 469 540 27,700 -2,160 Descending FlightAware ADS-B
11:43PM 30.9762 -93.8392 210° Southwest 463 533 26,600 -2,066 Descending FlightAware ADS-B
11:44PM 30.9209 -93.8768 210° Southwest 454 522 25,600 -2,066 Descending FlightAware ADS-B
11:44PM 30.8662 -93.9140 210° Southwest 446 513 24,500 -2,164 Descending FlightAware ADS-B
11:45PM 30.8111 -93.9513 210° Southwest 443 510 23,400 -2,066 Descending FlightAware ADS-B
11:45PM 30.7574 -93.9874 210° Southwest 443 510 22,400 -1,967 Descending FlightAware ADS-B
11:46PM 30.7044 -94.0232 210° Southwest 439 505 21,400 -1,800 Descending FlightAware ADS-B
11:46PM 30.6516 -94.0582 210° Southwest 432 497 20,600 -1,684 Descending FlightAware ADS-B
11:47PM 30.6051 -94.0899 210° Southwest 425 489 19,800 -1,784 Descending FlightAware ADS-B
11:47PM 30.5896 -94.1022 214° Southwest 421 484 19,500 -2,118 Descending FlightAware ADS-B
11:47PM 30.5795 -94.1120 220° Southwest 417 480 19,200 -1,895 Descending FlightAware ADS-B
11:48PM 30.5381 -94.1623 226° Southwest 408 470 18,300 -1,645 Descending FlightAware ADS-B
11:48PM 30.4994 -94.2120 228° Southwest 398 458 17,500 -1,548 Descending FlightAware ADS-B
11:49PM 30.4628 -94.2602 229° Southwest 395 455 16,700 -1,645 Descending FlightAware ADS-B
11:49PM 30.4258 -94.3093 229° Southwest 392 451 15,800 -1,770 Descending FlightAware ADS-B
11:50PM 30.3896 -94.3575 229° Southwest 388 447 14,900 -2,000 Descending FlightAware ADS-B
11:50PM 30.3543 -94.4044 229° Southwest 387 445 13,800 -2,459 Descending FlightAware ADS-B
11:51PM 30.3187 -94.4527 230° Southwest 390 449 12,400 -2,280 Descending FlightAware ADS-B
11:51PM 30.2972 -94.4833 231° Southwest 378 435 11,900 -1,200 Descending FlightAware ADS-B
11:51PM 30.2801 -94.5100 233° Southwest 363 418 11,700 -894 Descending FlightAware ADS-B
11:52PM 30.2525 -94.5569 236° Southwest 343 395 11,200 -1,082 Descending FlightAware ADS-B
11:52PM 30.2263 -94.6015 236° Southwest 320 368 10,600 -885 Descending FlightAware ADS-B
11:53PM 30.2021 -94.6427 236° Southwest 298 343 10,300 -913 Descending FlightAware ADS-B
11:53PM 30.1903 -94.6629 236° Southwest 295 339 9,900 -1,400 Descending FlightAware ADS-B
11:53PM 30.1789 -94.6823 236° Southwest 291 335 9,600 -1,400 Descending FlightAware ADS-B
11:54PM 30.1673 -94.7021 236° Southwest 290 334 9,200 -1,400 Descending FlightAware ADS-B
11:54PM 30.1561 -94.7212 236° Southwest 287 330 8,900 -1,286 Descending FlightAware ADS-B
11:54PM 30.1463 -94.7379 236° Southwest 283 326 8,600 -1,034 Descending FlightAware ADS-B
11:54PM 30.1348 -94.7572 235° Southwest 273 314 8,400 -1,125 Descending FlightAware ADS-B
11:55PM 30.1241 -94.7754 236° Southwest 269 310 8,000 -1,355 Descending FlightAware ADS-B
11:55PM 30.1135 -94.7934 236° Southwest 267 307 7,700 -1,364 Descending FlightAware ADS-B
11:55PM 30.1083 -94.8023 236° Southwest 264 304 7,500 -1,500 Descending FlightAware ADS-B
11:55PM 30.1051 -94.8083 238° Southwest 263 303 7,400 -1,385 Descending FlightAware ADS-B
11:55PM 30.1003 -94.8181 240° Southwest 263 303 7,200 -1,800 Descending FlightAware ADS-B
11:55PM 30.0934 -94.8330 242° Southwest 262 302 6,800 -2,000 Descending FlightAware ADS-B
11:56PM 30.0849 -94.8517 242° Southwest 265 305 6,300 -1,935 Descending FlightAware ADS-B
11:56PM 30.0758 -94.8719 243° Southwest 267 307 5,800 -1,875 Descending FlightAware ADS-B
11:56PM 30.0670 -94.8915 243° Southwest 270 311 5,300 -1,941 Descending FlightAware ADS-B
11:56PM 30.0568 -94.9147 243° Southwest 271 312 4,700 -1,667 Descending FlightAware ADS-B
11:57PM 30.0467 -94.9380 243° Southwest 272 313 4,300 -1,636 Descending FlightAware ADS-B
11:57PM 30.0382 -94.9576 243° Southwest 274 315 3,800 -1,400 Descending FlightAware ADS-B
11:57PM 30.0296 -94.9775 243° Southwest 267 307 3,600 -828 Descending FlightAware ADS-B
11:57PM 30.0218 -94.9953 243° Southwest 259 298 3,400 -828 Descending FlightAware ADS-B
11:58PM 30.0137 -95.0137 243° Southwest 252 290 3,200 -774 Descending FlightAware ADS-B
11:58PM 30.0058 -95.0319 243° Southwest 251 289 3,000 -857 Descending FlightAware ADS-B
11:58PM 29.9993 -95.0467 243° Southwest 250 288 2,800 -800 Descending FlightAware ADS-B
11:58PM 29.9977 -95.0506 245° Southwest 250 288 2,800 -857 Level FlightAware ADS-B
11:58PM 29.9960 -95.0555 248° West 248 285 2,700 -1,333 Descending FlightAware ADS-B
11:58PM 29.9948 -95.0614 257° West 246 283 2,600 -1,333 Descending FlightAware ADS-B
11:58PM 29.9942 -95.0669 263° West 244 281 2,500 -1,091 Descending FlightAware ADS-B
11:59PM 29.9938 -95.0756 267° West 242 278 2,400 -667 Descending FlightAware ADS-B
11:59PM 29.9935 -95.0905 269° West 239 275 2,300 -444 Descending FlightAware ADS-B
11:59PM 29.9935 -95.1097 270° West 232 267 2,200 -387 Descending FlightAware ADS-B
11:59PM 29.9934 -95.1279 270° West 223 257 2,100 -222 Descending FlightAware ADS-B
11:59PM 29.9934 -95.1420 270° West 214 246 2,100  Level FlightAware ADS-B
12:00AM 29.9934 -95.1565 270° West 205 236 2,100  Level FlightAware ADS-B
12:00AM 29.9934 -95.1862 270° West 194 223 2,100  Level FlightAware ADS-B
12:00AM 29.9934 -95.2019 270° West 194 223 2,100 -231 Level FlightAware ADS-B
12:01AM 29.9934 -95.2134 270° West 191 220 2,000 -889 Descending FlightAware ADS-B
12:01AM 29.9935 -95.2294 270° West 185 213 1,700 -1,034 Descending FlightAware ADS-B
12:01AM 29.9934 -95.2422 269° West 176 203 1,500 -828 Descending FlightAware ADS-B
12:01AM 29.9934 -95.2562 270° West 165 190 1,300 -774 Descending FlightAware ADS-B
12:02AM 29.9935 -95.2692 271° West 157 181 1,100 -857 Descending FlightAware ADS-B
12:02AM 29.9935 -95.2856 270° West 154 177 800 -857 Descending FlightAware ADS-B
12:02AM 29.9935 -95.2981 270° West 154 177 600 -774 Descending FlightAware ADS-B
12:02AM 29.9935 -95.3108 270° West 152 175 400 -774 Descending FlightAware ADS-B
12:03AM 29.9935 -95.3233 270° West 149 171 200 -333 Descending FlightAware ADS-B
12:03AM 29.9935 -95.3381 270° West 147 169 200  Level FlightAware ADS-B